createdAt,value
2023-07-25T00:00:07.828Z,100789.50
2023-07-25T00:02:39.474Z,100782.47
2023-07-25T00:05:11.563Z,100787.88
2023-07-25T00:07:42.960Z,100794.31
2023-07-25T00:10:14.284Z,100799.75
2023-07-25T00:12:46.112Z,100788.34
2023-07-25T00:15:17.490Z,100766.69
2023-07-25T00:17:49.026Z,100799.75
2023-07-25T00:20:20.555Z,100809.50
2023-07-25T00:22:52.290Z,100799.97
2023-07-25T00:25:23.894Z,100800.38
2023-07-25T00:27:55.479Z,100803.91
2023-07-25T00:30:27.693Z,100776.69
2023-07-25T00:32:59.185Z,100798.94
2023-07-25T00:35:30.571Z,100793.31
2023-07-25T00:38:02.087Z,100798.31
2023-07-25T00:40:33.622Z,100797.28
2023-07-25T00:43:05.164Z,100800.78
2023-07-25T00:45:37.119Z,100806.00
2023-07-25T00:48:08.823Z,100804.13
2023-07-25T00:50:39.852Z,100807.03
2023-07-25T00:53:12.336Z,100791.03
2023-07-25T00:55:43.795Z,100794.56
2023-07-25T00:58:15.572Z,100809.97
2023-07-25T01:00:49.918Z,100814.09
2023-07-25T01:03:21.407Z,100812.22
2023-07-25T01:05:53.516Z,100814.50
2023-07-25T01:08:25.430Z,100811.81
2023-07-25T01:10:56.873Z,100796.66
2023-07-25T01:13:28.411Z,100818.66
2023-07-25T01:15:59.837Z,100781.69
2023-07-25T01:18:31.935Z,100799.13
2023-07-25T01:21:03.466Z,100816.56
2023-07-25T01:23:35.410Z,100821.34
2023-07-25T01:26:06.767Z,100821.97
2023-07-25T01:28:39.893Z,100826.53
2023-07-25T01:31:11.380Z,100829.44
2023-07-25T01:33:43.092Z,100715.91
2023-07-25T01:36:14.443Z,100833.19
2023-07-25T01:38:45.959Z,100834.41
2023-07-25T01:41:17.402Z,100828.19
2023-07-25T01:43:48.954Z,100794.38
2023-07-25T01:46:20.296Z,100853.09
2023-07-25T01:48:51.932Z,100846.66
2023-07-25T01:51:23.373Z,100827.34
2023-07-25T01:53:56.621Z,100845.00
2023-07-25T01:56:28.156Z,100853.50
2023-07-25T01:58:59.606Z,100835.28
2023-07-25T02:01:31.342Z,100864.31
2023-07-25T02:04:02.435Z,100849.22
2023-07-25T02:06:33.685Z,100848.50
2023-07-25T02:09:05.478Z,100846.00
2023-07-25T02:11:36.789Z,100840.84
2023-07-25T02:14:08.561Z,100850.78
2023-07-25T02:16:40.337Z,100835.63
2023-07-25T02:19:11.919Z,100849.72
2023-07-25T02:21:43.236Z,100820.63
2023-07-25T02:24:14.756Z,100832.66
2023-07-25T02:26:46.165Z,100838.25
2023-07-25T02:29:17.586Z,100840.53
2023-07-25T02:31:49.301Z,100834.09
2023-07-25T02:34:20.776Z,100819.72
2023-07-25T02:36:52.415Z,100810.59
2023-07-25T02:39:23.846Z,100777.81
2023-07-25T02:41:55.256Z,100806.19
2023-07-25T02:44:26.809Z,100785.22
2023-07-25T02:46:58.175Z,100805.09
2023-07-25T02:49:29.568Z,100787.69
2023-07-25T02:52:00.929Z,100804.25
2023-07-25T02:54:32.410Z,100817.53
2023-07-25T02:57:03.777Z,100814.00
2023-07-25T02:59:35.677Z,100813.34
2023-07-25T03:02:07.531Z,100792.59
2023-07-25T03:04:39.309Z,100802.50
2023-07-25T03:07:10.706Z,100787.94
2023-07-25T03:09:43.062Z,100808.94
2023-07-25T03:12:14.321Z,100787.72
2023-07-25T03:14:46.144Z,100805.34
2023-07-25T03:17:17.411Z,100795.78
2023-07-25T03:19:48.930Z,100809.91
2023-07-25T03:22:23.617Z,100813.19
2023-07-25T03:24:55.262Z,100807.34
2023-07-25T03:27:27.760Z,100807.13
2023-07-25T03:29:59.349Z,100777.81
2023-07-25T03:32:30.738Z,100793.53
2023-07-25T03:35:02.199Z,100783.34
2023-07-25T03:37:33.807Z,100782.88
2023-07-25T03:40:05.611Z,100763.19
2023-07-25T03:42:36.581Z,100790.00
2023-07-25T03:45:08.540Z,100779.72
2023-07-25T03:47:39.356Z,100775.00
2023-07-25T03:50:11.090Z,100780.16
2023-07-25T03:52:42.578Z,100768.03
2023-07-25T03:55:14.222Z,100778.19
2023-07-25T03:57:45.547Z,100759.47
2023-07-25T04:00:17.552Z,100753.78
2023-07-25T04:03:00.745Z,100755.47
2023-07-25T04:05:41.029Z,100756.28
2023-07-25T04:08:12.474Z,100761.63
2023-07-25T04:10:44.070Z,100684.91
2023-07-25T04:13:15.648Z,100732.44
2023-07-25T04:15:47.967Z,100727.19
2023-07-25T04:18:19.351Z,100728.25
2023-07-25T04:20:50.749Z,100738.63
2023-07-25T04:23:24.470Z,100639.16
2023-07-25T04:25:55.923Z,100714.88
2023-07-25T04:28:28.187Z,100707.03
2023-07-25T04:31:00.761Z,100722.91
2023-07-25T04:33:32.252Z,100696.78
2023-07-25T04:36:03.727Z,100706.41
2023-07-25T04:38:35.157Z,100685.66
2023-07-25T04:41:06.818Z,100698.44
2023-07-25T04:43:46.597Z,100687.59
2023-07-25T04:46:18.220Z,100694.25
2023-07-25T04:48:49.838Z,100682.34
2023-07-25T04:51:21.431Z,100680.44
2023-07-25T04:53:53.135Z,100675.41
2023-07-25T04:56:24.693Z,100656.75
2023-07-25T04:58:55.987Z,100667.88
2023-07-25T05:01:30.484Z,100678.25
2023-07-25T05:04:03.637Z,100662.91
2023-07-25T05:06:35.250Z,100666.97
2023-07-25T05:09:27.077Z,100662.75
2023-07-25T05:12:00.142Z,100662.75
2023-07-25T05:14:31.416Z,100662.31
2023-07-25T05:17:03.335Z,100650.41
2023-07-25T05:19:34.952Z,100627.72
2023-07-25T05:22:06.461Z,100640.78
2023-07-25T05:24:38.062Z,100647.63
2023-07-25T05:27:09.714Z,100649.06
2023-07-25T05:29:41.503Z,100637.13
2023-07-25T05:32:12.676Z,100641.22
2023-07-25T05:34:44.123Z,100611.84
2023-07-25T05:37:15.559Z,100652.47
2023-07-25T05:39:47.294Z,100629.50
2023-07-25T05:42:18.439Z,100605.47
2023-07-25T05:44:49.712Z,100594.97
2023-07-25T05:47:21.445Z,100582.47
2023-07-25T05:49:53.434Z,100575.41
2023-07-25T05:52:24.162Z,100604.13
2023-07-25T05:54:56.182Z,100586.88
2023-07-25T05:57:27.777Z,100569.03
2023-07-25T05:59:59.181Z,100597.50
2023-07-25T06:02:30.648Z,100534.59
2023-07-25T06:05:02.039Z,100591.38
2023-07-25T06:07:33.560Z,100589.13
2023-07-25T06:10:04.913Z,100587.72
2023-07-25T06:12:36.519Z,100566.47
2023-07-25T06:15:08.566Z,100586.81
2023-07-25T06:17:40.490Z,100577.63
2023-07-25T06:20:12.394Z,100580.69
2023-07-25T06:22:43.973Z,100556.00
2023-07-25T06:25:17.255Z,100575.16
2023-07-25T06:27:48.699Z,100573.59
2023-07-25T06:30:20.054Z,100549.06
2023-07-25T06:32:53.811Z,100537.06
2023-07-25T06:35:26.465Z,100557.56
2023-07-25T06:37:57.943Z,100535.84
2023-07-25T06:40:29.318Z,100531.59
2023-07-25T06:43:00.912Z,100527.34
2023-07-25T06:45:32.582Z,100526.63
2023-07-25T06:48:04.114Z,100504.94
2023-07-25T06:50:35.960Z,100516.13
2023-07-25T06:53:06.953Z,100524.28
2023-07-25T06:55:40.124Z,100523.78
2023-07-25T06:58:13.716Z,100522.13
2023-07-25T07:00:48.174Z,100528.25
2023-07-25T07:03:19.704Z,100516.25
2023-07-25T07:06:00.199Z,100521.00
2023-07-25T07:08:31.807Z,100526.28
2023-07-25T07:11:03.069Z,100520.06
2023-07-25T07:13:34.587Z,100582.00
2023-07-25T07:16:06.069Z,100583.31
2023-07-25T07:18:38.367Z,100569.13
2023-07-25T07:21:10.348Z,100565.09
2023-07-25T07:23:41.721Z,100580.66
2023-07-25T07:26:13.104Z,100562.13
2023-07-25T07:28:44.892Z,100557.31
2023-07-25T07:31:17.816Z,100525.34
2023-07-25T07:33:49.247Z,100508.09
2023-07-25T07:36:20.654Z,100524.13
2023-07-25T07:38:52.074Z,100458.34
2023-07-25T07:41:23.401Z,100504.44
2023-07-25T07:43:54.880Z,100492.50
2023-07-25T07:46:26.391Z,100480.69
2023-07-25T07:48:59.312Z,100486.72
2023-07-25T07:51:31.133Z,100472.81
2023-07-25T07:54:02.976Z,100477.75
2023-07-25T07:56:34.494Z,100492.50
2023-07-25T07:59:05.674Z,100503.03
2023-07-25T08:01:38.950Z,100508.66
2023-07-25T08:04:13.770Z,100506.53
2023-07-25T08:06:45.214Z,100510.91
2023-07-25T08:09:16.702Z,100503.13
2023-07-25T08:11:48.037Z,100490.19
2023-07-25T08:14:19.545Z,100505.38
2023-07-25T08:16:51.132Z,100511.03
2023-07-25T08:19:23.286Z,100500.88
2023-07-25T08:21:57.052Z,100506.56
2023-07-25T08:24:28.757Z,100485.72
2023-07-25T08:27:00.256Z,100512.34
2023-07-25T08:29:31.882Z,100506.25
2023-07-25T08:32:03.250Z,100521.19
2023-07-25T08:34:34.736Z,100527.69
2023-07-25T08:37:06.876Z,100531.47
2023-07-25T08:39:38.371Z,100519.81
2023-07-25T08:42:20.956Z,100445.84
2023-07-25T08:44:55.213Z,100478.53
2023-07-25T08:47:31.022Z,100471.34
2023-07-25T08:50:06.932Z,100442.22
2023-07-25T08:52:39.389Z,100529.72
2023-07-25T08:55:11.359Z,100485.00
2023-07-25T08:57:44.884Z,100486.19
2023-07-25T09:00:18.235Z,100503.31
2023-07-25T09:02:53.775Z,100490.94
2023-07-25T09:05:27.390Z,100493.84
2023-07-25T09:08:01.677Z,100509.06
2023-07-25T09:10:33.860Z,100507.41
2023-07-25T09:13:05.242Z,100515.06
2023-07-25T09:15:36.940Z,100509.78
2023-07-25T09:18:08.435Z,100511.41
2023-07-25T09:20:40.841Z,100507.06
2023-07-25T09:23:21.261Z,100512.84
2023-07-25T09:25:54.708Z,100513.66
2023-07-25T09:28:26.021Z,100508.72
2023-07-25T09:30:57.593Z,100501.03
2023-07-25T09:33:31.055Z,100346.25
2023-07-25T09:36:02.623Z,100505.41
2023-07-25T09:38:36.067Z,100481.13
2023-07-25T09:41:08.497Z,100514.59
2023-07-25T09:43:41.667Z,100510.00
2023-07-25T09:46:13.844Z,100495.03
2023-07-25T09:48:50.552Z,100517.78
2023-07-25T09:51:22.331Z,100511.63
2023-07-25T09:53:58.043Z,100498.41
2023-07-25T09:56:30.217Z,100546.81
2023-07-25T09:59:07.184Z,100558.44
2023-07-25T10:01:40.912Z,100551.91
2023-07-25T10:04:14.647Z,100568.03
2023-07-25T10:06:46.840Z,100578.03
2023-07-25T10:09:19.226Z,100585.22
2023-07-25T10:11:53.231Z,100587.88
2023-07-25T10:14:24.940Z,100622.22
2023-07-25T10:16:56.756Z,100636.97
2023-07-25T10:19:28.188Z,100652.41
2023-07-25T10:22:00.231Z,100659.09
2023-07-25T10:24:36.837Z,100692.06
2023-07-25T10:27:13.886Z,100657.63
2023-07-25T10:29:48.450Z,100709.13
2023-07-25T10:32:24.107Z,100716.03
2023-07-25T10:35:08.102Z,100727.47
2023-07-25T10:37:46.364Z,100732.91
2023-07-25T10:40:19.798Z,100735.22
2023-07-25T10:43:05.800Z,100727.47
2023-07-25T10:45:51.610Z,100626.44
2023-07-25T10:48:37.663Z,100689.56
2023-07-25T10:51:10.128Z,100704.31
2023-07-25T10:53:42.442Z,100703.19
2023-07-25T10:56:14.797Z,100712.72
2023-07-25T10:59:09.028Z,100699.84
2023-07-25T11:01:47.563Z,100693.78
2023-07-25T11:04:27.418Z,100691.53
2023-07-25T11:07:12.177Z,100599.56
2023-07-25T11:09:47.841Z,100639.28
2023-07-25T11:12:26.586Z,100653.59
2023-07-25T11:14:58.395Z,100669.41
2023-07-25T11:17:33.239Z,100671.81
2023-07-25T11:20:18.969Z,100681.22
2023-07-25T11:22:56.388Z,100574.91
2023-07-25T11:25:28.580Z,100672.56
2023-07-25T11:28:00.079Z,100682.13
2023-07-25T11:30:31.978Z,100679.63
2023-07-25T11:33:02.797Z,100684.59
2023-07-25T11:35:33.976Z,100676.75
2023-07-25T11:38:06.128Z,100683.41
2023-07-25T11:40:38.302Z,100681.06
2023-07-25T11:43:16.571Z,100642.03
2023-07-25T11:45:48.741Z,100683.75
2023-07-25T11:48:23.146Z,100649.41
2023-07-25T11:50:55.465Z,100664.19
2023-07-25T11:53:30.295Z,100662.63
2023-07-25T11:56:03.026Z,100661.78
2023-07-25T11:58:34.554Z,100668.63
2023-07-25T12:01:10.360Z,100682.19
2023-07-25T12:03:50.244Z,100677.22
2023-07-25T12:06:33.964Z,100656.16
2023-07-25T12:09:06.097Z,100664.72
2023-07-25T12:11:47.310Z,100683.25
2023-07-25T12:14:18.761Z,100699.34
2023-07-25T12:16:50.424Z,100707.44
2023-07-25T12:19:23.609Z,100688.75
2023-07-25T12:22:05.971Z,100680.31
2023-07-25T12:24:44.324Z,100695.28
2023-07-25T12:27:20.208Z,100714.47
2023-07-25T12:29:51.740Z,100724.66
2023-07-25T12:32:23.458Z,100728.19
2023-07-25T12:35:02.097Z,100739.09
2023-07-25T12:37:33.688Z,100743.28
2023-07-25T12:40:06.427Z,100743.72
2023-07-25T12:42:37.883Z,100747.47
2023-07-25T12:45:11.257Z,100754.97
2023-07-25T12:47:43.364Z,100747.94
2023-07-25T12:50:15.208Z,100756.63
2023-07-25T12:52:46.688Z,100755.44
2023-07-25T12:55:18.123Z,100769.56
2023-07-25T12:57:49.562Z,100758.44
2023-07-25T13:00:21.107Z,100740.13
2023-07-25T13:02:52.759Z,100771.03
2023-07-25T13:05:24.369Z,100759.03
2023-07-25T13:07:56.491Z,100772.72
2023-07-25T13:10:29.840Z,100766.69
2023-07-25T13:13:01.994Z,100775.56
2023-07-25T13:15:33.542Z,100758.19
2023-07-25T13:18:04.953Z,100784.56
2023-07-25T13:20:36.510Z,100784.56
2023-07-25T13:23:11.819Z,100789.38
2023-07-25T13:25:46.934Z,100720.75
2023-07-25T13:28:19.432Z,100800.81
2023-07-25T13:30:50.840Z,100782.53
2023-07-25T13:33:22.514Z,100805.84
2023-07-25T13:35:53.965Z,100810.81
2023-07-25T13:38:25.567Z,100737.00
2023-07-25T13:40:57.258Z,100810.59
2023-07-25T13:43:28.896Z,100811.19
2023-07-25T13:46:04.694Z,100815.78
2023-07-25T13:48:36.608Z,100810.03
2023-07-25T13:51:08.107Z,100821.09
2023-07-25T13:53:39.645Z,100826.38
2023-07-25T13:56:14.186Z,100825.16
2023-07-25T13:58:46.095Z,100797.16
2023-07-25T14:01:17.161Z,100833.19
2023-07-25T14:03:48.756Z,100827.31
2023-07-25T14:06:20.321Z,100839.00
2023-07-25T14:08:52.785Z,100836.31
2023-07-25T14:11:25.767Z,100778.38
2023-07-25T14:13:57.630Z,100836.94
2023-07-25T14:16:29.353Z,100841.53
2023-07-25T14:19:03.581Z,100838.63
2023-07-25T14:21:35.217Z,100837.81
2023-07-25T14:24:07.365Z,100833.00
2023-07-25T14:26:39.956Z,100842.75
2023-07-25T14:29:11.684Z,100837.34
2023-07-25T14:31:43.344Z,100845.09
2023-07-25T14:34:15.051Z,100847.75
2023-07-25T14:36:46.599Z,100849.00
2023-07-25T14:39:21.066Z,100841.72
2023-07-25T14:41:52.587Z,100842.38
2023-07-25T14:44:24.634Z,100839.44
2023-07-25T14:46:56.102Z,100832.38
2023-07-25T14:49:27.817Z,100841.53
2023-07-25T14:51:59.682Z,100843.59
2023-07-25T14:54:32.587Z,100846.47
2023-07-25T14:57:04.241Z,100840.69
2023-07-25T14:59:36.115Z,100851.25
2023-07-25T15:02:08.146Z,100848.97
2023-07-25T15:04:39.226Z,100872.53
2023-07-25T15:07:10.761Z,100878.44
2023-07-25T15:09:42.354Z,100867.84
2023-07-25T15:12:14.085Z,100878.88
2023-07-25T15:14:45.900Z,100868.25
2023-07-25T15:17:25.296Z,100884.25
2023-07-25T15:20:11.376Z,100895.25
2023-07-25T15:22:43.279Z,100861.75
2023-07-25T15:25:14.994Z,100876.34
2023-07-25T15:27:47.266Z,100872.41
2023-07-25T15:30:20.252Z,100863.06
2023-07-25T15:32:51.915Z,100871.59
2023-07-25T15:35:27.961Z,100863.47
2023-07-25T15:38:00.760Z,100878.84
2023-07-25T15:40:32.766Z,100869.28
2023-07-25T15:43:03.660Z,100869.19
2023-07-25T15:45:37.122Z,100869.91
2023-07-25T15:48:08.888Z,100867.84
2023-07-25T15:50:40.652Z,100867.22
2023-07-25T15:53:15.270Z,100867.22
2023-07-25T15:55:49.819Z,100866.16
2023-07-25T15:58:21.517Z,100828.13
2023-07-25T16:00:53.397Z,100849.31
2023-07-25T16:03:25.175Z,100835.25
2023-07-25T16:05:56.881Z,100821.91
2023-07-25T16:08:28.551Z,100818.59
2023-07-25T16:11:00.241Z,100814.88
2023-07-25T16:13:31.887Z,100806.97
2023-07-25T16:16:03.590Z,100767.94
2023-07-25T16:18:35.738Z,100806.13
2023-07-25T16:21:08.750Z,100795.75
2023-07-25T16:23:40.436Z,100804.69
2023-07-25T16:26:12.406Z,100793.25
2023-07-25T16:28:44.947Z,100794.13
2023-07-25T16:31:32.029Z,100792.03
2023-07-25T16:34:11.106Z,100784.13
2023-07-25T16:36:42.704Z,100777.06
2023-07-25T16:39:17.218Z,100751.72
2023-07-25T16:41:48.910Z,100785.56
2023-07-25T16:44:20.456Z,100779.97
2023-07-25T16:46:52.395Z,100708.97
2023-07-25T16:49:24.153Z,100761.09
2023-07-25T16:51:55.620Z,100769.16
2023-07-25T16:54:29.557Z,100769.16
2023-07-25T16:57:01.268Z,100770.81
2023-07-25T16:59:32.648Z,100764.59
2023-07-25T17:02:04.439Z,100767.31
2023-07-25T17:04:35.899Z,100747.16
2023-07-25T17:07:07.685Z,100754.84
2023-07-25T17:09:39.066Z,100675.69
2023-07-25T17:12:11.138Z,100757.56
2023-07-25T17:14:42.480Z,100733.44
2023-07-25T17:17:14.016Z,100741.75
2023-07-25T17:19:45.459Z,100753.81
2023-07-25T17:22:17.098Z,100752.13
2023-07-25T17:24:48.500Z,100750.50
2023-07-25T17:27:20.520Z,100749.22
2023-07-25T17:29:53.374Z,100755.88
2023-07-25T17:32:25.017Z,100761.69
2023-07-25T17:34:56.566Z,100749.00
2023-07-25T17:37:27.995Z,100715.09
2023-07-25T17:39:59.494Z,100756.69
2023-07-25T17:42:31.545Z,100739.03
2023-07-25T17:45:02.800Z,100738.00
2023-07-25T17:47:35.187Z,100713.69
2023-07-25T17:50:06.808Z,100740.91
2023-07-25T17:52:38.301Z,100718.50
2023-07-25T17:55:10.200Z,100729.28
2023-07-25T17:57:41.583Z,100714.34
2023-07-25T18:00:13.381Z,100710.19
2023-07-25T18:02:44.744Z,100693.59
2023-07-25T18:05:15.829Z,100695.69
2023-07-25T18:07:47.204Z,100697.56
2023-07-25T18:10:18.725Z,100701.13
2023-07-25T18:12:50.545Z,100694.25
2023-07-25T18:15:21.887Z,100685.38
2023-07-25T18:17:53.543Z,100692.81
2023-07-25T18:20:24.850Z,100633.47
2023-07-25T18:22:56.262Z,100689.72
2023-07-25T18:25:27.686Z,100677.47
2023-07-25T18:27:59.448Z,100670.81
2023-07-25T18:30:30.895Z,100693.56
2023-07-25T18:33:02.539Z,100687.00
2023-07-25T18:35:34.804Z,100695.91
2023-07-25T18:38:06.183Z,100692.41
2023-07-25T18:40:38.730Z,100706.28
2023-07-25T18:43:10.250Z,100705.28
2023-07-25T18:45:41.563Z,100677.84
2023-07-25T18:48:12.960Z,100711.47
2023-07-25T18:50:46.481Z,100711.06
2023-07-25T18:53:17.896Z,100709.19
2023-07-25T18:55:51.358Z,100693.19
2023-07-25T18:58:22.983Z,100720.81
2023-07-25T19:00:54.909Z,100724.78
2023-07-25T19:03:29.618Z,100732.06
2023-07-25T19:06:01.456Z,100734.75
2023-07-25T19:08:32.828Z,100704.44
2023-07-25T19:11:04.267Z,100727.69
2023-07-25T19:13:35.714Z,100729.75
2023-07-25T19:16:07.149Z,100725.63
2023-07-25T19:18:38.650Z,100727.47
2023-07-25T19:21:10.037Z,100723.09
2023-07-25T19:23:42.021Z,100724.34
2023-07-25T19:26:13.247Z,100736.06
2023-07-25T19:28:45.028Z,100725.16
2023-07-25T19:31:17.369Z,100727.69
2023-07-25T19:33:49.242Z,100725.16
2023-07-25T19:36:20.958Z,100724.75
2023-07-25T19:38:57.179Z,100721.03
2023-07-25T19:41:34.240Z,100731.63
2023-07-25T19:44:07.179Z,100720.63
2023-07-25T19:46:42.729Z,100737.84
2023-07-25T19:49:14.694Z,100736.41
2023-07-25T19:51:47.278Z,100718.16
2023-07-25T19:54:19.157Z,100736.00
2023-07-25T19:56:53.995Z,100740.13
2023-07-25T19:59:31.149Z,100645.84
2023-07-25T20:02:06.466Z,100714.59
2023-07-25T20:04:38.325Z,100721.47
2023-07-25T20:07:15.277Z,100737.63
2023-07-25T20:09:48.399Z,100733.47
2023-07-25T20:12:20.906Z,100734.31
2023-07-25T20:14:56.065Z,100752.97
2023-07-25T20:17:30.775Z,100743.41
2023-07-25T20:20:03.999Z,100732.22
2023-07-25T20:22:42.519Z,100726.41
2023-07-25T20:25:19.081Z,100722.47
2023-07-25T20:27:53.704Z,100730.59
2023-07-25T20:30:28.168Z,100728.94
2023-07-25T20:33:05.840Z,100728.72
2023-07-25T20:35:40.234Z,100715.63
2023-07-25T20:38:12.850Z,100722.31
2023-07-25T20:40:46.996Z,100720.25
2023-07-25T20:43:19.944Z,100669.16
2023-07-25T20:45:52.740Z,100724.78
2023-07-25T20:48:26.880Z,100726.84
2023-07-25T20:50:58.906Z,100717.72
2023-07-25T20:53:33.369Z,100713.78
2023-07-25T20:56:05.327Z,100714.16
2023-07-25T20:58:40.482Z,100622.16
2023-07-25T21:01:14.696Z,100728.91
2023-07-25T21:04:13.014Z,100725.59
2023-07-25T21:06:48.112Z,100699.41
2023-07-25T21:09:19.841Z,100695.69
2023-07-25T21:11:51.665Z,100645.44
2023-07-25T21:14:24.721Z,100706.50
2023-07-25T21:17:01.367Z,100717.09
2023-07-25T21:19:41.607Z,100618.00
2023-07-25T21:22:13.505Z,100718.94
2023-07-25T21:24:45.271Z,100718.53
2023-07-25T21:27:24.176Z,100721.88
2023-07-25T21:30:00.564Z,100717.31
2023-07-25T21:32:39.935Z,100721.66
2023-07-25T21:35:24.753Z,100728.13
2023-07-25T21:37:59.445Z,100730.59
2023-07-25T21:40:34.819Z,100716.47
2023-07-25T21:43:07.077Z,100723.09
2023-07-25T21:45:39.091Z,100717.50
2023-07-25T21:48:12.432Z,100724.34
2023-07-25T21:50:44.170Z,100718.53
2023-07-25T21:53:16.115Z,100730.56
2023-07-25T21:55:47.277Z,100731.66
2023-07-25T21:58:19.033Z,100738.44
2023-07-25T22:00:50.842Z,100716.22
2023-07-25T22:03:26.921Z,100731.63
2023-07-25T22:05:59.434Z,100735.53
2023-07-25T22:08:31.391Z,100738.69
2023-07-25T22:11:03.160Z,100736.81
2023-07-25T22:13:34.903Z,100743.84
2023-07-25T22:16:09.112Z,100744.72
2023-07-25T22:18:44.442Z,100735.97
2023-07-25T22:21:19.727Z,100750.09
2023-07-25T22:23:54.298Z,100739.91
2023-07-25T22:26:27.505Z,100756.69
2023-07-25T22:28:59.796Z,100760.84
2023-07-25T22:31:31.988Z,100756.09
2023-07-25T22:34:07.122Z,100767.06
2023-07-25T22:36:39.147Z,100767.06
2023-07-25T22:39:14.094Z,100568.06
2023-07-25T22:41:46.517Z,100754.19
2023-07-25T22:44:17.634Z,100751.75
2023-07-25T22:46:49.198Z,100761.22
2023-07-25T22:49:30.728Z,100766.66
2023-07-25T22:52:03.567Z,100762.50
2023-07-25T22:54:35.496Z,100757.13
2023-07-25T22:57:07.471Z,100763.38
2023-07-25T22:59:45.455Z,100702.69
2023-07-25T23:02:20.983Z,100753.41
2023-07-25T23:04:52.956Z,100758.59
2023-07-25T23:07:25.191Z,100759.22
2023-07-25T23:09:57.858Z,100756.25
2023-07-25T23:12:30.201Z,100761.72
2023-07-25T23:15:02.153Z,100765.47
2023-07-25T23:17:36.794Z,100767.56
2023-07-25T23:20:09.386Z,100767.97
2023-07-25T23:22:41.445Z,100770.44
2023-07-25T23:25:16.099Z,100773.19
2023-07-25T23:27:47.506Z,100764.25
2023-07-25T23:30:19.441Z,100771.72
2023-07-25T23:32:50.869Z,100781.69
2023-07-25T23:35:22.558Z,100783.78
2023-07-25T23:37:54.387Z,100794.38
2023-07-25T23:40:26.178Z,100783.38
2023-07-25T23:42:57.557Z,100795.81
2023-07-25T23:45:29.217Z,100772.56
2023-07-25T23:48:00.820Z,100800.38
2023-07-25T23:50:33.851Z,100794.56
2023-07-25T23:53:05.477Z,100806.63
2023-07-25T23:55:38.405Z,100811.00
2023-07-25T23:58:12.074Z,100800.19
